Portada
METAR-TAF:

METAR-TAF

Aeroports :

Ottawa, Kansas, Estats Units d'Amèrica

latitud: 38-32-20N, longitud: 095-15-10W, altitud: 295 m

Observació

L'informe es va fer fa 36 minuts, a les 00:35 UTC
Vent 11 kt del Sud/Sud-Oest amb ràfegues de 19 kt
Temperatura 35°C
Humitat 47%
Pressió 1009 hPa
Visibilitat: 16.1 km
Cel clar

METAR: KOWI 250035Z AUTO 21011G19KT 10SM CLR 35/22 A2979 RMK AO2 PWINO

Hora: 20:11 (01:11 UTC)


TAF: manca

Observacions i pronòstics meteorològics de més de 4000 aeroports (METAR i TAF).

Les estacions disponibles són els punts grocs i vermells al mapa.

Posi el ratolí al punt desitjat per veure el nom de l'estació.

Feu clic per veure les observacions i els pronòstics meteorològics.

Per canviar el mapa: feu clic els botons verds amb una creu de color negre per apropar; al botó verd amb un guió per allunyar la imatge; o en les fletxes verdes per a mapes adjacents.


METAR-TAF: